sensor_id;sensor_type;location;lat;lon;timestamp;pressure;altitude;pressure_sealevel;temperature;humidity
14295;BME280;7231;59.370;18.016;2023-09-08T00:01:23;102051.59;;;16.12;100.00
14295;BME280;7231;59.370;18.016;2023-09-08T00:03:51;102033.69;;;16.02;100.00
14295;BME280;7231;59.370;18.016;2023-09-08T00:06:20;102045.28;;;16.07;100.00
14295;BME280;7231;59.370;18.016;2023-09-08T00:08:49;102047.91;;;16.05;100.00
14295;BME280;7231;59.370;18.016;2023-09-08T00:11:17;102033.75;;;16.03;100.00
14295;BME280;7231;59.370;18.016;2023-09-08T00:13:45;102044.28;;;16.02;100.00
14295;BME280;7231;59.370;18.016;2023-09-08T00:16:13;102044.13;;;15.96;100.00
14295;BME280;7231;59.370;18.016;2023-09-08T00:18:41;102044.22;;;15.99;100.00
14295;BME280;7231;59.370;18.016;2023-09-08T00:21:09;102044.16;;;15.97;100.00
14295;BME280;7231;59.370;18.016;2023-09-08T00:23:37;102047.63;;;15.95;100.00
14295;BME280;7231;59.370;18.016;2023-09-08T00:26:06;102036.91;;;15.88;100.00
14295;BME280;7231;59.370;18.016;2023-09-08T00:28:34;102018.81;;;15.71;100.00
14295;BME280;7231;59.370;18.016;2023-09-08T00:31:02;102040.34;;;15.86;100.00
14295;BME280;7231;59.370;18.016;2023-09-08T00:33:31;102042.91;;;15.83;100.00
14295;BME280;7231;59.370;18.016;2023-09-08T00:35:59;102033.16;;;15.80;100.00
14295;BME280;7231;59.370;18.016;2023-09-08T00:38:27;102005.34;;;15.62;100.00
14295;BME280;7231;59.370;18.016;2023-09-08T00:40:55;102026.91;;;15.77;100.00
14295;BME280;7231;59.370;18.016;2023-09-08T00:43:25;102034.72;;;15.72;100.00
14295;BME280;7231;59.370;18.016;2023-09-08T00:45:54;101931.91;;;15.17;100.00
14295;BME280;7231;59.370;18.016;2023-09-08T00:48:25;102033.00;;;15.74;100.00
14295;BME280;7231;59.370;18.016;2023-09-08T00:50:53;102024.06;;;15.69;100.00
14295;BME280;7231;59.370;18.016;2023-09-08T00:53:21;102038.16;;;15.70;100.00
14295;BME280;7231;59.370;18.016;2023-09-08T00:55:50;102033.72;;;15.69;100.00
14295;BME280;7231;59.370;18.016;2023-09-08T00:58:18;102030.22;;;15.70;100.00
14295;BME280;7231;59.370;18.016;2023-09-08T01:00:48;102024.06;;;15.69;100.00
14295;BME280;7231;59.370;18.016;2023-09-08T01:03:16;102012.34;;;15.58;100.00
14295;BME280;7231;59.370;18.016;2023-09-08T01:05:45;102020.31;;;15.61;100.00
14295;BME280;7231;59.370;18.016;2023-09-08T01:08:16;102029.25;;;15.66;100.00
14295;BME280;7231;59.370;18.016;2023-09-08T01:10:45;102025.75;;;15.67;100.00
14295;BME280;7231;59.370;18.016;2023-09-08T01:13:13;102007.03;;;15.58;100.00
14295;BME280;7231;59.370;18.016;2023-09-08T01:15:41;102015.03;;;15.61;100.00
14295;BME280;7231;59.370;18.016;2023-09-08T01:18:10;101999.91;;;15.55;100.00
14295;BME280;7231;59.370;18.016;2023-09-08T01:21:00;102018.69;;;15.66;100.00
14295;BME280;7231;59.370;18.016;2023-09-08T01:23:41;102021.28;;;15.65;100.00
14295;BME280;7231;59.370;18.016;2023-09-08T01:26:17;102026.56;;;15.65;100.00
14295;BME280;7231;59.370;18.016;2023-09-08T01:28:48;102006.97;;;15.56;100.00
14295;BME280;7231;59.370;18.016;2023-09-08T01:31:17;102022.97;;;15.61;100.00
14295;BME280;7231;59.370;18.016;2023-09-08T01:33:46;102023.84;;;15.60;100.00
14295;BME280;7231;59.370;18.016;2023-09-08T01:36:15;102023.81;;;15.58;100.00
14295;BME280;7231;59.370;18.016;2023-09-08T01:38:43;102025.56;;;15.58;100.00
14295;BME280;7231;59.370;18.016;2023-09-08T01:41:11;102026.41;;;15.57;100.00
14295;BME280;7231;59.370;18.016;2023-09-08T01:43:40;102017.47;;;15.53;100.00
14295;BME280;7231;59.370;18.016;2023-09-08T01:46:08;102016.56;;;15.53;100.00
14295;BME280;7231;59.370;18.016;2023-09-08T01:48:36;102020.19;;;15.56;100.00
14295;BME280;7231;59.370;18.016;2023-09-08T01:51:04;102014.88;;;15.55;100.00
14295;BME280;7231;59.370;18.016;2023-09-08T01:53:32;102019.25;;;15.54;100.00
14295;BME280;7231;59.370;18.016;2023-09-08T01:56:00;102013.06;;;15.54;100.00
14295;BME280;7231;59.370;18.016;2023-09-08T01:58:28;102013.06;;;15.54;100.00
14295;BME280;7231;59.370;18.016;2023-09-08T02:00:59;102005.88;;;15.48;100.00
14295;BME280;7231;59.370;18.016;2023-09-08T02:03:32;102014.88;;;15.55;100.00
14295;BME280;7231;59.370;18.016;2023-09-08T02:06:00;102008.69;;;15.54;100.00
14295;BME280;7231;59.370;18.016;2023-09-08T02:08:28;102005.19;;;15.55;100.00
14295;BME280;7231;59.370;18.016;2023-09-08T02:10:56;102006.06;;;15.56;100.00
14295;BME280;7231;59.370;18.016;2023-09-08T02:13:24;102000.78;;;15.56;100.00
14295;BME280;7231;59.370;18.016;2023-09-08T02:15:52;102008.69;;;15.54;100.00
14295;BME280;7231;59.370;18.016;2023-09-08T02:18:22;101995.41;;;15.53;100.00
14295;BME280;7231;59.370;18.016;2023-09-08T02:20:51;101993.59;;;15.50;100.00
14295;BME280;7231;59.370;18.016;2023-09-08T02:23:19;101999.81;;;15.52;100.00
14295;BME280;7231;59.370;18.016;2023-09-08T02:25:47;101978.44;;;15.43;100.00
14295;BME280;7231;59.370;18.016;2023-09-08T02:28:15;101995.41;;;15.53;100.00
14295;BME280;7231;59.370;18.016;2023-09-08T02:30:43;102000.72;;;15.53;100.00
14295;BME280;7231;59.370;18.016;2023-09-08T02:33:11;101988.44;;;15.55;100.00
14295;BME280;7231;59.370;18.016;2023-09-08T02:35:40;101986.63;;;15.54;100.00
14295;BME280;7231;59.370;18.016;2023-09-08T02:38:08;101971.63;;;15.53;100.00
14295;BME280;7231;59.370;18.016;2023-09-08T02:40:36;101967.03;;;15.46;100.00
14295;BME280;7231;59.370;18.016;2023-09-08T02:43:04;101981.28;;;15.51;100.00
14295;BME280;7231;59.370;18.016;2023-09-08T02:45:32;101969.75;;;15.49;100.00
14295;BME280;7231;59.370;18.016;2023-09-08T02:48:02;101977.69;;;15.49;100.00
14295;BME280;7231;59.370;18.016;2023-09-08T02:50:30;101957.28;;;15.43;100.00
14295;BME280;7231;59.370;18.016;2023-09-08T02:52:59;101970.66;;;15.49;100.00
14295;BME280;7231;59.370;18.016;2023-09-08T02:55:27;101966.19;;;15.47;100.00
14295;BME280;7231;59.370;18.016;2023-09-08T02:57:56;101958.19;;;15.44;100.00
14295;BME280;7231;59.370;18.016;2023-09-08T03:00:25;101943.75;;;15.31;100.00
14295;BME280;7231;59.370;18.016;2023-09-08T03:02:53;101971.47;;;15.47;100.00
14295;BME280;7231;59.370;18.016;2023-09-08T03:05:21;101982.97;;;15.49;100.00
14295;BME280;7231;59.370;18.016;2023-09-08T03:07:49;101978.53;;;15.48;100.00
14295;BME280;7231;59.370;18.016;2023-09-08T03:10:18;101978.50;;;15.46;100.00
14295;BME280;7231;59.370;18.016;2023-09-08T03:12:46;101964.34;;;15.44;100.00
14295;BME280;7231;59.370;18.016;2023-09-08T03:15:15;101970.63;;;15.48;100.00
14295;BME280;7231;59.370;18.016;2023-09-08T03:17:43;101964.41;;;15.46;100.00
14295;BME280;7231;59.370;18.016;2023-09-08T03:20:11;101971.50;;;15.48;100.00
14295;BME280;7231;59.370;18.016;2023-09-08T03:22:40;101954.59;;;15.42;100.00
14295;BME280;7231;59.370;18.016;2023-09-08T03:25:08;101973.25;;;15.48;100.00
14295;BME280;7231;59.370;18.016;2023-09-08T03:27:37;101965.31;;;15.48;100.00
14295;BME280;7231;59.370;18.016;2023-09-08T03:30:06;101966.22;;;15.48;100.00
14295;BME280;7231;59.370;18.016;2023-09-08T03:32:35;101924.97;;;15.20;100.00
14295;BME280;7231;59.370;18.016;2023-09-08T03:35:04;101967.03;;;15.46;100.00
14295;BME280;7231;59.370;18.016;2023-09-08T03:37:34;101965.25;;;15.45;100.00
14295;BME280;7231;59.370;18.016;2023-09-08T03:40:03;101965.25;;;15.45;100.00
14295;BME280;7231;59.370;18.016;2023-09-08T03:42:33;101914.22;;;15.14;100.00
14295;BME280;7231;59.370;18.016;2023-09-08T03:45:03;101962.59;;;15.45;100.00
14295;BME280;7231;59.370;18.016;2023-09-08T03:47:31;101964.31;;;15.43;100.00
14295;BME280;7231;59.370;18.016;2023-09-08T03:49:59;101962.59;;;15.45;100.00
14295;BME280;7231;59.370;18.016;2023-09-08T03:52:27;101966.16;;;15.45;100.00
14295;BME280;7231;59.370;18.016;2023-09-08T03:54:55;101959.97;;;15.45;100.00
14295;BME280;7231;59.370;18.016;2023-09-08T03:57:23;101961.72;;;15.44;100.00
14295;BME280;7231;59.370;18.016;2023-09-08T03:59:52;101967.84;;;15.43;100.00
14295;BME280;7231;59.370;18.016;2023-09-08T04:02:21;101958.00;;;15.38;100.00
14295;BME280;7231;59.370;18.016;2023-09-08T04:04:49;101952.66;;;15.35;100.00
14295;BME280;7231;59.370;18.016;2023-09-08T04:07:17;101967.81;;;15.42;100.00
14295;BME280;7231;59.370;18.016;2023-09-08T04:09:45;101968.66;;;15.41;100.00
14295;BME280;7231;59.370;18.016;2023-09-08T04:12:13;101959.84;;;15.40;100.00
14295;BME280;7231;59.370;18.016;2023-09-08T04:14:42;101964.25;;;15.40;100.00
14295;BME280;7231;59.370;18.016;2023-09-08T04:17:10;101973.06;;;15.40;100.00
14295;BME280;7231;59.370;18.016;2023-09-08T04:19:39;101965.13;;;15.40;100.00
14295;BME280;7231;59.370;18.016;2023-09-08T04:22:07;101975.75;;;15.42;100.00
14295;BME280;7231;59.370;18.016;2023-09-08T04:24:35;101979.31;;;15.44;100.00
14295;BME280;7231;59.370;18.016;2023-09-08T04:27:04;101973.09;;;15.42;100.00
14295;BME280;7231;59.370;18.016;2023-09-08T04:29:32;101975.88;;;15.46;100.00
14295;BME280;7231;59.370;18.016;2023-09-08T04:32:00;101965.13;;;15.40;100.00
14295;BME280;7231;59.370;18.016;2023-09-08T04:34:36;101977.78;;;15.52;100.00
14295;BME280;7231;59.370;18.016;2023-09-08T04:37:06;101972.47;;;15.52;100.00
14295;BME280;7231;59.370;18.016;2023-09-08T04:39:35;101981.53;;;15.60;100.00
14295;BME280;7231;59.370;18.016;2023-09-08T04:42:04;101951.25;;;15.49;100.00
14295;BME280;7231;59.370;18.016;2023-09-08T04:44:32;101979.06;;;15.68;100.00
14295;BME280;7231;59.370;18.016;2023-09-08T04:47:00;101976.53;;;15.72;100.00
14295;BME280;7231;59.370;18.016;2023-09-08T04:49:28;101982.75;;;15.74;100.00
14295;BME280;7231;59.370;18.016;2023-09-08T04:51:56;101975.75;;;15.76;100.00
14295;BME280;7231;59.370;18.016;2023-09-08T04:54:25;101969.66;;;15.79;100.00
14295;BME280;7231;59.370;18.016;2023-09-08T04:56:54;101983.84;;;15.82;100.00
14295;BME280;7231;59.370;18.016;2023-09-08T04:59:41;101981.28;;;15.85;100.00
14295;BME280;7231;59.370;18.016;2023-09-08T05:02:10;101967.97;;;15.82;100.00
14295;BME280;7231;59.370;18.016;2023-09-08T05:04:38;101949.38;;;15.79;100.00
14295;BME280;7231;59.370;18.016;2023-09-08T05:07:05;101985.09;;;15.98;100.00
14295;BME280;7231;59.370;18.016;2023-09-08T05:09:35;101983.44;;;16.02;100.00
14295;BME280;7231;59.370;18.016;2023-09-08T05:12:03;101979.06;;;16.04;100.00
14295;BME280;7231;59.370;18.016;2023-09-08T05:14:32;101984.50;;;16.10;100.00
14295;BME280;7231;59.370;18.016;2023-09-08T05:17:00;101979.34;;;16.16;100.00
14295;BME280;7231;59.370;18.016;2023-09-08T05:19:28;101975.00;;;16.18;100.00
14295;BME280;7231;59.370;18.016;2023-09-08T05:21:56;101969.78;;;16.21;100.00
14295;BME280;7231;59.370;18.016;2023-09-08T05:24:24;101973.34;;;16.23;100.00
14295;BME280;7231;59.370;18.016;2023-09-08T05:26:55;101928.75;;;16.02;100.00
14295;BME280;7231;59.370;18.016;2023-09-08T05:29:23;101977.16;;;16.36;100.00
14295;BME280;7231;59.370;18.016;2023-09-08T05:31:51;101972.75;;;16.36;100.00
14295;BME280;7231;59.370;18.016;2023-09-08T05:34:19;101975.47;;;16.39;100.00
14295;BME280;7231;59.370;18.016;2023-09-08T05:36:47;101972.03;;;16.43;100.00
14295;BME280;7231;59.370;18.016;2023-09-08T05:39:15;101920.28;;;16.17;100.00
14295;BME280;7231;59.370;18.016;2023-09-08T05:41:45;101981.97;;;16.53;100.00
14295;BME280;7231;59.370;18.016;2023-09-08T05:44:14;101975.91;;;16.59;100.00
14295;BME280;7231;59.370;18.016;2023-09-08T05:46:42;101956.47;;;16.57;100.00
14295;BME280;7231;59.370;18.016;2023-09-08T05:49:10;101970.59;;;16.58;100.00
14295;BME280;7231;59.370;18.016;2023-09-08T05:51:38;101970.63;;;16.59;100.00
14295;BME280;7231;59.370;18.016;2023-09-08T05:54:06;101967.94;;;16.58;100.00
14295;BME280;7231;59.370;18.016;2023-09-08T05:56:37;101979.56;;;16.64;100.00
14295;BME280;7231;59.370;18.016;2023-09-08T05:59:05;101977.03;;;16.69;100.00
14295;BME280;7231;59.370;18.016;2023-09-08T06:01:34;101978.03;;;16.74;100.00
14295;BME280;7231;59.370;18.016;2023-09-08T06:04:04;101972.81;;;16.77;100.00
14295;BME280;7231;59.370;18.016;2023-09-08T06:06:32;101976.38;;;16.79;100.00
14295;BME280;7231;59.370;18.016;2023-09-08T06:09:00;101979.09;;;16.82;100.00
14295;BME280;7231;59.370;18.016;2023-09-08T06:11:28;101986.22;;;16.86;100.00
14295;BME280;7231;59.370;18.016;2023-09-08T06:13:56;101978.28;;;16.86;100.00
14295;BME280;7231;59.370;18.016;2023-09-08T06:16:26;101986.22;;;16.86;100.00
14295;BME280;7231;59.370;18.016;2023-09-08T06:18:55;101973.09;;;16.91;100.00
14295;BME280;7231;59.370;18.016;2023-09-08T06:21:23;101972.28;;;16.95;100.00
14295;BME280;7231;59.370;18.016;2023-09-08T06:23:51;101967.88;;;16.95;100.00
14295;BME280;7231;59.370;18.016;2023-09-08T06:26:19;101964.50;;;17.04;100.00
14295;BME280;7231;59.370;18.016;2023-09-08T06:28:47;101949.31;;;16.95;100.00
14295;BME280;7231;59.370;18.016;2023-09-08T06:31:15;101970.03;;;17.14;100.00
14295;BME280;7231;59.370;18.016;2023-09-08T06:33:43;101976.41;;;17.26;100.00
14295;BME280;7231;59.370;18.016;2023-09-08T06:36:13;101979.25;;;17.35;100.00
14295;BME280;7231;59.370;18.016;2023-09-08T06:38:41;101966.97;;;17.40;100.00
14295;BME280;7231;59.370;18.016;2023-09-08T06:41:09;101975.88;;;17.43;100.00
14295;BME280;7231;59.370;18.016;2023-09-08T06:43:38;101942.97;;;17.32;100.00
14295;BME280;7231;59.370;18.016;2023-09-08T06:46:06;101969.06;;;17.59;100.00
14295;BME280;7231;59.370;18.016;2023-09-08T06:48:34;101966.53;;;17.65;100.00
14295;BME280;7231;59.370;18.016;2023-09-08T06:51:03;101968.50;;;17.75;100.00
14295;BME280;7231;59.370;18.016;2023-09-08T06:53:32;101964.28;;;17.88;100.00
14295;BME280;7231;59.370;18.016;2023-09-08T06:56:00;101963.59;;;18.00;100.00
14295;BME280;7231;59.370;18.016;2023-09-08T06:58:28;101953.88;;;18.00;100.00
14295;BME280;7231;59.370;18.016;2023-09-08T07:00:56;101955.78;;;18.10;100.00
14295;BME280;7231;59.370;18.016;2023-09-08T07:03:24;101961.22;;;18.21;100.00
14295;BME280;7231;59.370;18.016;2023-09-08T07:05:53;101960.47;;;18.31;100.00
14295;BME280;7231;59.370;18.016;2023-09-08T07:08:21;101960.63;;;18.42;100.00
14295;BME280;7231;59.370;18.016;2023-09-08T07:10:53;101960.66;;;18.43;100.00
14295;BME280;7231;59.370;18.016;2023-09-08T07:13:21;101966.88;;;18.45;100.00
14295;BME280;7231;59.370;18.016;2023-09-08T07:15:49;101968.66;;;18.45;100.00
14295;BME280;7231;59.370;18.016;2023-09-08T07:18:17;101964.31;;;18.52;100.00
14295;BME280;7231;59.370;18.016;2023-09-08T07:20:46;101973.19;;;18.54;100.00
14295;BME280;7231;59.370;18.016;2023-09-08T07:23:16;101971.47;;;18.59;100.00
14295;BME280;7231;59.370;18.016;2023-09-08T07:25:45;101978.53;;;18.57;100.00
14295;BME280;7231;59.370;18.016;2023-09-08T07:28:15;101958.91;;;18.45;100.00
14295;BME280;7231;59.370;18.016;2023-09-08T07:30:43;101973.16;;;18.50;100.00
14295;BME280;7231;59.370;18.016;2023-09-08T07:33:11;101966.84;;;18.42;100.00
14295;BME280;7231;59.370;18.016;2023-09-08T07:35:40;101952.66;;;18.40;100.00
14295;BME280;7231;59.370;18.016;2023-09-08T07:38:08;101959.03;;;18.55;100.00
14295;BME280;7231;59.370;18.016;2023-09-08T07:40:36;101951.44;;;18.82;100.00
14295;BME280;7231;59.370;18.016;2023-09-08T07:43:04;101952.84;;;19.28;100.00
14295;BME280;7231;59.370;18.016;2023-09-08T07:45:33;101956.72;;;19.59;100.00
14295;BME280;7231;59.370;18.016;2023-09-08T07:48:02;101962.34;;;19.99;100.00
14295;BME280;7231;59.370;18.016;2023-09-08T07:50:30;101966.22;;;20.44;98.12
14295;BME280;7231;59.370;18.016;2023-09-08T07:52:58;101968.19;;;20.90;96.23
14295;BME280;7231;59.370;18.016;2023-09-08T07:55:26;101970.09;;;21.22;92.43
14295;BME280;7231;59.370;18.016;2023-09-08T07:57:55;101976.31;;;21.28;89.21
14295;BME280;7231;59.370;18.016;2023-09-08T08:00:24;101978.91;;;21.08;87.34
14295;BME280;7231;59.370;18.016;2023-09-08T08:02:56;101983.25;;;20.73;86.97
14295;BME280;7231;59.370;18.016;2023-09-08T08:05:25;101967.91;;;20.35;88.16
14295;BME280;7231;59.370;18.016;2023-09-08T08:07:53;101977.69;;;20.35;89.17
14295;BME280;7231;59.370;18.016;2023-09-08T08:10:21;101982.97;;;20.27;88.10
14295;BME280;7231;59.370;18.016;2023-09-08T08:12:49;101986.69;;;20.51;90.10
14295;BME280;7231;59.370;18.016;2023-09-08T08:15:19;101981.59;;;21.19;90.27
14295;BME280;7231;59.370;18.016;2023-09-08T08:17:47;101971.91;;;21.96;88.51
14295;BME280;7231;59.370;18.016;2023-09-08T08:20:17;101964.69;;;22.56;84.32
14295;BME280;7231;59.370;18.016;2023-09-08T08:22:46;101966.38;;;22.87;81.77
14295;BME280;7231;59.370;18.016;2023-09-08T08:25:14;101972.53;;;23.05;80.32
14295;BME280;7231;59.370;18.016;2023-09-08T08:27:42;101970.44;;;23.49;78.80
14295;BME280;7231;59.370;18.016;2023-09-08T08:30:11;101965.59;;;23.95;75.86
14295;BME280;7231;59.370;18.016;2023-09-08T08:32:39;101952.06;;;24.12;74.34
14295;BME280;7231;59.370;18.016;2023-09-08T08:35:07;101961.56;;;24.44;72.51
14295;BME280;7231;59.370;18.016;2023-09-08T08:37:39;101952.84;;;24.22;71.19
14295;BME280;7231;59.370;18.016;2023-09-08T08:40:09;101952.63;;;24.45;70.58
14295;BME280;7231;59.370;18.016;2023-09-08T08:42:38;101950.72;;;24.53;69.40
14295;BME280;7231;59.370;18.016;2023-09-08T08:45:07;101950.00;;;24.40;69.68
14295;BME280;7231;59.370;18.016;2023-09-08T08:47:36;101945.94;;;24.78;69.48
14295;BME280;7231;59.370;18.016;2023-09-08T08:50:05;101958.34;;;24.86;67.64
14295;BME280;7231;59.370;18.016;2023-09-08T08:52:38;101941.66;;;24.63;66.87
14295;BME280;7231;59.370;18.016;2023-09-08T08:55:07;101958.34;;;24.86;66.52
14295;BME280;7231;59.370;18.016;2023-09-08T08:57:37;101958.22;;;24.99;64.88
14295;BME280;7231;59.370;18.016;2023-09-08T09:00:08;101953.78;;;24.93;65.33
14295;BME280;7231;59.370;18.016;2023-09-08T09:02:39;101946.50;;;25.06;65.29
14295;BME280;7231;59.370;18.016;2023-09-08T09:05:09;101945.00;;;25.45;64.46
14295;BME280;7231;59.370;18.016;2023-09-08T09:07:40;101941.00;;;25.15;64.01
14295;BME280;7231;59.370;18.016;2023-09-08T09:10:09;101951.72;;;25.15;63.55
14295;BME280;7231;59.370;18.016;2023-09-08T09:12:37;101952.88;;;24.94;63.76
14295;BME280;7231;59.370;18.016;2023-09-08T09:15:06;101943.00;;;24.27;64.49
14295;BME280;7231;59.370;18.016;2023-09-08T09:17:35;101858.25;;;23.22;65.58
14295;BME280;7231;59.370;18.016;2023-09-08T09:20:12;101944.28;;;23.85;66.83
14295;BME280;7231;59.370;18.016;2023-09-08T09:22:43;101935.81;;;24.29;65.88
14295;BME280;7231;59.370;18.016;2023-09-08T09:25:21;101936.09;;;24.78;63.87
14295;BME280;7231;59.370;18.016;2023-09-08T09:27:51;101929.44;;;25.10;63.84
14295;BME280;7231;59.370;18.016;2023-09-08T09:30:19;101930.72;;;25.43;62.97
14295;BME280;7231;59.370;18.016;2023-09-08T09:32:47;101920.50;;;25.66;62.31
14295;BME280;7231;59.370;18.016;2023-09-08T09:35:16;101923.59;;;25.94;61.46
14295;BME280;7231;59.370;18.016;2023-09-08T09:37:46;101924.00;;;26.17;60.78
14295;BME280;7231;59.370;18.016;2023-09-08T09:40:15;101919.84;;;26.01;60.42
14295;BME280;7231;59.370;18.016;2023-09-08T09:42:43;101919.56;;;26.15;60.32
14295;BME280;7231;59.370;18.016;2023-09-08T09:45:12;101921.50;;;26.08;59.59
14295;BME280;7231;59.370;18.016;2023-09-08T09:47:40;101913.31;;;26.14;60.29
14295;BME280;7231;59.370;18.016;2023-09-08T09:50:09;101910.97;;;26.44;59.26
14295;BME280;7231;59.370;18.016;2023-09-08T09:52:38;101910.59;;;26.61;58.08
14295;BME280;7231;59.370;18.016;2023-09-08T09:55:08;101908.00;;;26.56;58.28
14295;BME280;7231;59.370;18.016;2023-09-08T09:57:37;101911.03;;;26.82;57.72
14295;BME280;7231;59.370;18.016;2023-09-08T10:00:07;101907.53;;;27.17;57.45
14295;BME280;7231;59.370;18.016;2023-09-08T10:02:36;101917.34;;;27.57;55.86
14295;BME280;7231;59.370;18.016;2023-09-08T10:05:11;101926.28;;;27.59;54.88
14295;BME280;7231;59.370;18.016;2023-09-08T10:07:39;101909.28;;;27.20;55.51
14295;BME280;7231;59.370;18.016;2023-09-08T10:10:09;101912.25;;;27.45;55.18
14295;BME280;7231;59.370;18.016;2023-09-08T10:12:38;101915.00;;;27.06;55.18
14295;BME280;7231;59.370;18.016;2023-09-08T10:15:08;101915.09;;;27.39;55.59
14295;BME280;7231;59.370;18.016;2023-09-08T10:17:40;101906.78;;;27.84;54.27
14295;BME280;7231;59.370;18.016;2023-09-08T10:20:11;101914.81;;;27.51;54.03
14295;BME280;7231;59.370;18.016;2023-09-08T10:22:41;101912.91;;;27.19;54.82
14295;BME280;7231;59.370;18.016;2023-09-08T10:25:12;101902.97;;;27.57;54.52
14295;BME280;7231;59.370;18.016;2023-09-08T10:27:42;101912.09;;;27.87;53.35
14295;BME280;7231;59.370;18.016;2023-09-08T10:30:11;101911.03;;;27.60;53.83
14295;BME280;7231;59.370;18.016;2023-09-08T10:32:40;101904.38;;;27.73;54.03
14295;BME280;7231;59.370;18.016;2023-09-08T10:35:10;101884.69;;;27.71;53.07
14295;BME280;7231;59.370;18.016;2023-09-08T10:37:38;101909.78;;;28.05;53.34
14295;BME280;7231;59.370;18.016;2023-09-08T10:40:26;101912.06;;;28.53;52.30
14295;BME280;7231;59.370;18.016;2023-09-08T10:43:06;101904.22;;;29.03;51.10
14295;BME280;7231;59.370;18.016;2023-09-08T10:45:35;101905.53;;;29.46;51.01
14295;BME280;7231;59.370;18.016;2023-09-08T10:48:03;101912.56;;;29.78;49.40
14295;BME280;7231;59.370;18.016;2023-09-08T10:50:33;101890.97;;;28.95;49.88
14295;BME280;7231;59.370;18.016;2023-09-08T10:53:05;101915.78;;;29.34;49.54
14295;BME280;7231;59.370;18.016;2023-09-08T10:55:40;101887.81;;;29.63;49.15
14295;BME280;7231;59.370;18.016;2023-09-08T10:58:10;101900.38;;;29.91;48.77
14295;BME280;7231;59.370;18.016;2023-09-08T11:00:46;101914.16;;;30.10;48.27
14295;BME280;7231;59.370;18.016;2023-09-08T11:03:25;101908.75;;;30.10;47.77
14295;BME280;7231;59.370;18.016;2023-09-08T11:05:55;101889.19;;;30.01;47.67
14295;BME280;7231;59.370;18.016;2023-09-08T11:08:23;101893.84;;;29.96;47.58
14295;BME280;7231;59.370;18.016;2023-09-08T11:10:56;101813.84;;;29.39;47.47
14295;BME280;7231;59.370;18.016;2023-09-08T11:13:24;101899.09;;;29.76;47.61
14295;BME280;7231;59.370;18.016;2023-09-08T11:15:52;101912.38;;;29.01;48.82
14295;BME280;7231;59.370;18.016;2023-09-08T11:18:25;101914.31;;;28.67;49.18
14295;BME280;7231;59.370;18.016;2023-09-08T11:20:54;101915.78;;;28.49;50.35
14295;BME280;7231;59.370;18.016;2023-09-08T11:23:22;101917.94;;;28.66;49.94
14295;BME280;7231;59.370;18.016;2023-09-08T11:25:51;101915.88;;;28.46;49.63
14295;BME280;7231;59.370;18.016;2023-09-08T11:28:22;101906.53;;;28.27;49.82
14295;BME280;7231;59.370;18.016;2023-09-08T11:30:51;101903.47;;;28.39;49.75
14295;BME280;7231;59.370;18.016;2023-09-08T11:33:21;101900.06;;;28.62;49.87
14295;BME280;7231;59.370;18.016;2023-09-08T11:35:52;101897.63;;;28.82;49.38
14295;BME280;7231;59.370;18.016;2023-09-08T11:38:24;101892.78;;;28.95;49.50
14295;BME280;7231;59.370;18.016;2023-09-08T11:40:54;101892.38;;;29.07;49.34
14295;BME280;7231;59.370;18.016;2023-09-08T11:43:24;101893.69;;;28.64;48.50
14295;BME280;7231;59.370;18.016;2023-09-08T11:45:53;101886.31;;;28.41;49.73
14295;BME280;7231;59.370;18.016;2023-09-08T11:48:21;101883.97;;;28.60;49.84
14295;BME280;7231;59.370;18.016;2023-09-08T11:50:53;101893.81;;;28.91;50.11
14295;BME280;7231;59.370;18.016;2023-09-08T11:53:21;101851.34;;;28.96;49.13
14295;BME280;7231;59.370;18.016;2023-09-08T11:55:50;101886.34;;;28.69;49.05
14295;BME280;7231;59.370;18.016;2023-09-08T11:58:19;101888.72;;;28.20;50.51
14295;BME280;7231;59.370;18.016;2023-09-08T12:00:49;101872.47;;;28.23;49.96
14295;BME280;7231;59.370;18.016;2023-09-08T12:03:18;101890.91;;;27.73;50.83
14295;BME280;7231;59.370;18.016;2023-09-08T12:05:51;101887.91;;;27.12;51.54
14295;BME280;7231;59.370;18.016;2023-09-08T12:08:19;101884.34;;;27.12;52.20
14295;BME280;7231;59.370;18.016;2023-09-08T12:10:47;101882.34;;;26.81;52.74
14295;BME280;7231;59.370;18.016;2023-09-08T12:13:20;101873.84;;;27.01;52.75
14295;BME280;7231;59.370;18.016;2023-09-08T12:15:50;101870.00;;;27.47;51.83
14295;BME280;7231;59.370;18.016;2023-09-08T12:18:18;101873.41;;;27.89;51.68
14295;BME280;7231;59.370;18.016;2023-09-08T12:20:46;101852.13;;;28.11;50.98
14295;BME280;7231;59.370;18.016;2023-09-08T12:23:18;101867.97;;;28.22;50.38
14295;BME280;7231;59.370;18.016;2023-09-08T12:25:48;101853.50;;;28.26;50.62
14295;BME280;7231;59.370;18.016;2023-09-08T12:28:17;101861.94;;;28.72;50.94
14295;BME280;7231;59.370;18.016;2023-09-08T12:30:46;101859.25;;;29.02;50.15
14295;BME280;7231;59.370;18.016;2023-09-08T12:33:16;101871.63;;;29.35;49.25
14295;BME280;7231;59.370;18.016;2023-09-08T12:35:47;101869.94;;;29.59;49.16
14295;BME280;7231;59.370;18.016;2023-09-08T12:38:18;101863.88;;;29.53;48.96
14295;BME280;7231;59.370;18.016;2023-09-08T12:40:46;101844.66;;;29.07;48.92
14295;BME280;7231;59.370;18.016;2023-09-08T12:43:14;101863.31;;;28.87;49.88
14295;BME280;7231;59.370;18.016;2023-09-08T12:45:54;101879.47;;;28.59;49.97
14295;BME280;7231;59.370;18.016;2023-09-08T12:48:26;101867.88;;;27.94;50.57
14295;BME280;7231;59.370;18.016;2023-09-08T12:50:53;101838.09;;;27.30;51.67
14295;BME280;7231;59.370;18.016;2023-09-08T12:53:22;101861.91;;;27.11;52.61